• Join FlightAware (Why Join?)
  • Login
  • US Flag 
04:36PM EDT


 

Airport Tracker/Info


-or-


 

Live Flight TrackerFlight Track Log ✈ GLA1X ✈ 30-Apr-2013 ✈ KSAF - KDEN

Flight Track Log - Related Links

Times and Time Zones

All times are in EDT time to prevent confusion due to time zone crossing. See the GLA1X flight status page for this flight to view local times or setup timezone preferences in your user account.

Time Position Orientation Groundspeed Altitude Reporting Facility
EDT Latitude Longitude Course Direction KTS MPH feet Rate Location/Type
09:26AM 35.6386 -106.1400 334° Northwest 217 250 8,300  Level Albuquerque Center
09:27AM 35.6936 -106.1344 North 205 236 10,000 1,620 Climbing Albuquerque Center
09:28AM 35.7625 -106.1244 North 205 236 11,600 1,380 Climbing Albuquerque Center
09:29AM 35.8225 -106.1128 North 211 243 12,900 1,140 Climbing Albuquerque Center
09:30AM 36.3155 -105.9528 North  Level FlightAware Approximate
09:30AM 35.8839 -106.0975 11° North 218 251 14,000  Level Albuquerque Center
09:31AM 35.9453 -106.0767 15° North 225 259 15,100 1,080 Climbing Albuquerque Center
09:32AM 36.0092 -106.0583 13° North 232 267 16,200 900 Climbing Albuquerque Center
09:33AM 36.0744 -106.0439 10° North 236 272 17,000 780 Climbing Albuquerque Center
09:34AM 36.1417 -106.0264 12° North 243 280 17,900 720 Climbing Albuquerque Center
09:35AM 36.2122 -106.0119 North 255 293 18,500 600 Climbing Albuquerque Center
09:36AM 36.2825 -105.9981 North 256 295 19,200 660 Climbing Albuquerque Center
09:37AM 36.3519 -105.9792 12° North 257 296 19,900 660 Climbing Albuquerque Center
09:38AM 36.4222 -105.9617 11° North 257 296 20,600 600 Climbing Albuquerque Center
09:39AM 36.5014 -105.9394 13° North 257 296 21,200 600 Climbing Albuquerque Center
09:40AM 36.5694 -105.9253 North 258 297 21,900 660 Climbing Albuquerque Center
09:41AM 36.6497 -105.9122 North 259 298 22,600 540 Climbing Albuquerque Center
09:41AM 36.6622 -105.9097 North 257 296 22,700 420 Climbing Denver Center
09:42AM 36.7339 -105.9011 North 258 297 23,200 480 Climbing Denver Center
09:43AM 36.8114 -105.8811 12° North 264 304 23,700 360 Climbing Denver Center
09:44AM 36.8892 -105.8722 North 259 298 24,000 120 Climbing Denver Center
09:45AM 36.9589 -105.8617 North 263 303 24,000  Level Denver Center
09:46AM 37.0417 -105.8450 North 268 308 24,000  Level Denver Center
09:47AM 37.1153 -105.8386 North 266 306 24,000  Level Denver Center
09:48AM 37.1844 -105.8367 North 261 300 24,000  Level Denver Center
09:49AM 37.2653 -105.8286 North 267 307 24,000  Level Denver Center
09:50AM 37.3314 -105.8144 10° North 275 316 24,000  Level Denver Center
09:51AM 37.4122 -105.8269 353° North 267 307 24,000 -60 Level Denver Center
09:53AM 37.4961 -105.8389 354° North 268 308 23,900  Descending Denver Center
09:54AM 37.5744 -105.8572 349° North 261 300 24,000  Climbing Denver Center
09:55AM 37.6589 -105.8692 354° North 268 308 24,000  Level Denver Center
09:56AM 37.7314 -105.8792 354° North 271 312 24,000  Level Denver Center
09:57AM 37.8031 -105.8933 351° North 271 312 24,000  Level Denver Center
09:58AM 37.8861 -105.9078 352° North 270 311 24,000  Level Denver Center
09:59AM 37.9547 -105.9256 348° North 265 305 24,000  Level Denver Center
10:00AM 38.0239 -105.9400 351° North 262 302 24,000  Level Denver Center
10:01AM 38.1058 -105.9583 350° North 266 306 24,000  Level Denver Center
10:02AM 38.1761 -105.9711 352° North 266 306 24,000  Level Denver Center
10:03AM 38.2558 -105.9886 350° North 262 302 24,100  Climbing Denver Center
10:04AM 38.3247 -106.0033 350° North 262 302 24,000 -60 Descending Denver Center
10:05AM 38.3947 -106.0206 349° North 265 305 24,000  Level Denver Center
10:06AM 38.4764 -106.0392 350° North 266 306 24,000  Level Denver Center
10:07AM 38.5464 -106.0533 351° North 265 305 24,000  Level Denver Center
10:08AM 38.6303 -106.0667 353° North 268 308 24,000  Level Denver Center
10:09AM 38.7011 -106.0792 352° North 269 310 24,000 -60 Level Denver Center
10:10AM 38.7719 -106.0767 North 266 306 23,900 -840 Descending Denver Center
10:11AM 38.8328 -105.9808 51° Northeast 316 364 22,400 -1,500 Descending Denver Center
10:12AM 38.8772 -105.8914 57° Northeast 316 364 20,900 -1,260 Descending Denver Center
10:13AM 38.9356 -105.7911 53° Northeast 314 361 19,900 -1,080 Descending Denver Center
10:14AM 38.9906 -105.7097 49° Northeast 313 360 18,800 -1,320 Descending Denver Center
10:15AM 39.0450 -105.6275 50° Northeast 312 359 17,300 -1,260 Descending Denver Center
10:16AM 39.0972 -105.5472 50° Northeast 303 349 16,300 -840 Descending Denver Center
10:17AM 39.1556 -105.4564 50° Northeast 291 335 15,600 -720 Descending Denver Center
10:18AM 39.2089 -105.3833 47° Northeast 284 327 14,900 -420 Descending Denver Center
10:19AM 39.2575 -105.3072 50° Northeast 276 318 14,800 -540 Descending Denver Center
10:20AM 39.3103 -105.2267 50° Northeast 275 316 13,900 -780 Descending Denver Center
10:21AM 39.3389 -105.1375 67° East 271 312 13,300 -480 Descending Denver Center
10:22AM 39.3517 -105.0411 80° East 276 318 13,000 -120 Descending Denver Center
10:23AM 39.3775 -104.9372 72° East 283 326 13,100 -300 Climbing Denver Center
10:24AM 39.4028 -104.8419 71° East 281 323 12,400 -840 Descending Denver Center
10:25AM 39.4331 -104.7500 67° East 280 322 11,500 -660 Descending Denver Center
10:26AM 39.4861 -104.6767 47° Northeast 282 325 11,100 -420 Descending Denver Center
10:27AM 39.5628 -104.6625 North 281 323 10,700 -900 Descending Denver Center
10:28AM 39.6381 -104.6636 359° North 256 295 9,300 -1,140 Descending Denver Center
10:30AM 39.6842 -104.6636 360° North 225 259 8,400 -1,140 Descending Denver Center
10:31AM 39.7542 -104.6622 North 194 223 7,000 -1,200 Descending Denver Center
10:32AM 39.8031 -104.6617 North 180 207 6,000 -780 Descending Denver Center
10:33AM 39.8425 -104.6600 North 149 171 5,400 -600 Descending Denver Center
10:35AM 39.8500 -104.6667 346° North  Level FlightAware Approximate
10:42AM 39.8617 -104.6732 346° North  Level Estimated
10:43AM 39.8617 -104.6732 346° North  Level Estimated